createdAt,value
2022-08-05T00:01:36.159Z,86.51
2022-08-05T00:04:17.276Z,86.17
2022-08-05T00:06:47.043Z,86.28
2022-08-05T00:09:14.889Z,85.26
2022-08-05T00:11:49.058Z,85.40
2022-08-05T00:14:29.055Z,85.02
2022-08-05T00:16:57.576Z,84.64
2022-08-05T00:19:33.646Z,85.17
2022-08-05T00:22:08.168Z,85.04
2022-08-05T00:24:42.577Z,85.10
2022-08-05T00:27:14.208Z,84.96
2022-08-05T00:29:44.524Z,84.90
2022-08-05T00:32:15.261Z,84.63
2022-08-05T00:35:04.312Z,84.49
2022-08-05T00:37:50.465Z,84.16
2022-08-05T00:40:27.733Z,85.15
2022-08-05T00:42:58.782Z,85.21
2022-08-05T00:45:38.886Z,85.31
2022-08-05T00:48:27.435Z,86.30
2022-08-05T00:50:54.976Z,85.29
2022-08-05T00:54:01.187Z,86.13
2022-08-05T00:56:11.470Z,85.70
2022-08-05T00:58:39.486Z,85.47
2022-08-05T01:01:11.415Z,86.27
2022-08-05T01:03:40.566Z,86.41
2022-08-05T01:06:14.235Z,86.28
2022-08-05T01:08:44.554Z,87.38
2022-08-05T01:11:36.885Z,87.09
2022-08-05T01:14:49.980Z,87.26
2022-08-05T01:17:26.496Z,87.49
2022-08-05T01:20:25.697Z,87.54
2022-08-05T01:23:34.851Z,86.82
2022-08-05T01:26:32.825Z,86.93
2022-08-05T01:29:05.559Z,86.51
2022-08-05T01:31:58.660Z,86.43
2022-08-05T01:34:32.495Z,87.13
2022-08-05T01:37:36.788Z,87.17
2022-08-05T01:40:14.107Z,86.92
2022-08-05T01:42:48.845Z,87.34
2022-08-05T01:45:17.870Z,87.90
2022-08-05T01:47:49.560Z,87.51
2022-08-05T01:50:28.704Z,86.97
2022-08-05T01:53:02.773Z,86.76
2022-08-05T01:55:36.135Z,86.79
2022-08-05T01:58:15.760Z,86.45
2022-08-05T02:00:49.888Z,86.76
2022-08-05T02:03:37.200Z,86.47
2022-08-05T02:06:33.387Z,86.06
2022-08-05T02:08:58.883Z,86.60
2022-08-05T02:11:36.320Z,86.72
2022-08-05T02:14:17.536Z,87.03
2022-08-05T02:16:56.243Z,87.37
2022-08-05T02:19:47.576Z,87.12
2022-08-05T02:22:28.489Z,87.87
2022-08-05T02:25:06.017Z,87.79
2022-08-05T02:27:59.065Z,87.80
2022-08-05T02:31:00.202Z,87.76
2022-08-05T02:33:36.089Z,87.82
2022-08-05T02:36:13.677Z,88.11
2022-08-05T02:38:52.869Z,88.12
2022-08-05T02:41:23.752Z,87.59
2022-08-05T02:44:06.460Z,87.75
2022-08-05T02:46:58.453Z,88.13
2022-08-05T02:49:37.767Z,88.02
2022-08-05T02:52:30.187Z,87.91
2022-08-05T02:55:05.384Z,88.19
2022-08-05T02:58:11.487Z,88.05
2022-08-05T03:00:28.722Z,87.78
2022-08-05T03:02:58.424Z,88.16
2022-08-05T03:06:53.762Z,88.17
2022-08-05T03:08:16.609Z,87.86
2022-08-05T03:11:55.638Z,88.12
2022-08-05T03:13:52.082Z,87.47
2022-08-05T03:16:21.596Z,87.44
2022-08-05T03:18:49.183Z,87.16
2022-08-05T03:21:16.444Z,86.97
2022-08-05T03:23:45.723Z,87.35
2022-08-05T03:26:30.828Z,87.22
2022-08-05T03:29:01.000Z,87.46
2022-08-05T03:31:55.874Z,87.59
2022-08-05T03:34:17.495Z,87.86
2022-08-05T03:36:45.433Z,87.96
2022-08-05T03:39:20.153Z,87.46
2022-08-05T03:41:57.781Z,87.02
2022-08-05T03:44:29.031Z,86.76
2022-08-05T03:46:57.778Z,87.16
2022-08-05T03:49:30.899Z,87.22
2022-08-05T03:52:37.822Z,86.80
2022-08-05T03:56:03.758Z,86.48
2022-08-05T03:58:29.030Z,86.42
2022-08-05T04:01:01.953Z,86.57
2022-08-05T04:03:35.559Z,86.45
2022-08-05T04:06:08.722Z,86.16
2022-08-05T04:08:37.193Z,85.96
2022-08-05T04:11:08.618Z,86.05
2022-08-05T04:13:50.137Z,85.93
2022-08-05T04:16:24.211Z,85.73
2022-08-05T04:18:54.760Z,85.40
2022-08-05T04:22:09.782Z,85.29
2022-08-05T04:24:19.284Z,84.94
2022-08-05T04:26:50.404Z,84.84
2022-08-05T04:29:18.404Z,84.80
2022-08-05T04:31:47.054Z,84.42
2022-08-05T04:34:31.401Z,84.06
2022-08-05T04:37:03.167Z,83.94
2022-08-05T04:39:32.192Z,83.76
2022-08-05T04:42:00.086Z,83.71
2022-08-05T04:44:30.497Z,83.67
2022-08-05T04:47:08.982Z,83.50
2022-08-05T04:50:01.343Z,83.31
2022-08-05T04:52:28.050Z,83.18
2022-08-05T04:54:57.371Z,82.64
2022-08-05T04:57:28.954Z,82.52
2022-08-05T04:59:57.370Z,82.13
2022-08-05T05:02:41.404Z,81.83
2022-08-05T05:05:16.805Z,81.53
2022-08-05T05:08:01.987Z,80.49
2022-08-05T05:10:42.761Z,80.59
2022-08-05T05:13:23.452Z,80.25
2022-08-05T05:15:57.365Z,79.57
2022-08-05T05:18:33.261Z,78.88
2022-08-05T05:21:03.287Z,79.34
2022-08-05T05:24:01.779Z,79.54
2022-08-05T05:26:28.637Z,78.48
2022-08-05T05:29:14.375Z,78.85
2022-08-05T05:31:42.979Z,78.94
2022-08-05T05:34:14.015Z,77.64
2022-08-05T05:36:43.042Z,77.60
2022-08-05T05:39:13.044Z,77.22
2022-08-05T05:41:42.041Z,77.69
2022-08-05T05:44:35.818Z,77.20
2022-08-05T05:46:58.223Z,75.76
2022-08-05T05:49:26.447Z,74.75
2022-08-05T05:51:55.161Z,74.15
2022-08-05T05:54:35.460Z,74.30
2022-08-05T05:57:13.838Z,74.52
2022-08-05T05:59:47.869Z,74.41
2022-08-05T06:02:16.933Z,73.52
2022-08-05T06:04:44.468Z,73.33
2022-08-05T06:07:16.886Z,72.67
2022-08-05T06:10:04.484Z,72.59
2022-08-05T06:12:42.110Z,72.69
2022-08-05T06:15:16.503Z,73.04
2022-08-05T06:17:52.752Z,72.29
2022-08-05T06:20:21.647Z,71.46
2022-08-05T06:22:49.197Z,71.83
2022-08-05T06:25:58.994Z,71.42
2022-08-05T06:28:11.106Z,71.20
2022-08-05T06:30:48.042Z,70.85
2022-08-05T06:33:33.437Z,70.42
2022-08-05T06:36:13.117Z,69.81
2022-08-05T06:39:27.360Z,70.43
2022-08-05T06:42:04.603Z,69.32
2022-08-05T06:44:32.660Z,68.82
2022-08-05T06:47:02.186Z,68.40
2022-08-05T06:50:00.118Z,67.29
2022-08-05T06:52:37.894Z,67.19
2022-08-05T06:55:06.679Z,66.41
2022-08-05T06:58:03.730Z,65.20
2022-08-05T07:00:22.271Z,65.76
2022-08-05T07:02:53.651Z,65.60
2022-08-05T07:05:36.965Z,63.95
2022-08-05T07:08:06.197Z,64.71
2022-08-05T07:10:39.458Z,63.99
2022-08-05T07:13:57.688Z,63.61
2022-08-05T07:18:01.615Z,63.66
2022-08-05T07:20:23.058Z,63.80
2022-08-05T07:28:00.125Z,62.97
2022-08-05T07:30:32.628Z,62.22
2022-08-05T07:33:49.439Z,62.67
2022-08-05T07:36:20.174Z,61.64
2022-08-05T07:38:54.802Z,61.92
2022-08-05T07:42:13.824Z,61.63
2022-08-05T07:44:18.766Z,60.95
2022-08-05T07:46:49.722Z,59.83
2022-08-05T07:49:18.423Z,60.08
2022-08-05T07:51:53.023Z,60.03
2022-08-05T07:54:30.670Z,60.04
2022-08-05T07:57:13.727Z,59.75
2022-08-05T07:59:48.883Z,60.15
2022-08-05T08:02:17.846Z,60.40
2022-08-05T08:04:46.904Z,59.57
2022-08-05T08:07:15.003Z,58.96
2022-08-05T08:09:43.195Z,59.42
2022-08-05T08:12:37.115Z,59.20
2022-08-05T08:15:09.759Z,59.11
2022-08-05T08:17:46.306Z,59.19
2022-08-05T08:21:03.200Z,58.70
2022-08-05T08:24:02.054Z,58.21
2022-08-05T08:26:30.190Z,58.16
2022-08-05T08:30:03.997Z,57.35
2022-08-05T08:32:18.582Z,57.57
2022-08-05T08:35:04.557Z,56.88
2022-08-05T08:37:46.114Z,57.05
2022-08-05T08:40:22.046Z,55.98
2022-08-05T08:42:55.092Z,55.42
2022-08-05T08:45:29.715Z,55.35
2022-08-05T08:48:10.526Z,54.14
2022-08-05T08:51:03.793Z,54.36
2022-08-05T08:53:40.347Z,54.45
2022-08-05T08:56:12.885Z,54.38
2022-08-05T08:58:47.447Z,54.32
2022-08-05T09:01:18.749Z,54.07
2022-08-05T09:03:54.557Z,54.32
2022-08-05T09:06:30.686Z,53.94
2022-08-05T09:09:00.505Z,53.69
2022-08-05T09:11:51.155Z,53.24
2022-08-05T09:14:58.977Z,53.74
2022-08-05T09:17:41.200Z,53.77
2022-08-05T09:20:12.185Z,52.78
2022-08-05T09:23:18.766Z,52.02
2022-08-05T09:26:02.044Z,51.23
2022-08-05T09:28:34.005Z,51.41
2022-08-05T09:32:41.545Z,50.86
2022-08-05T09:34:48.944Z,51.46
2022-08-05T09:38:12.631Z,51.96
2022-08-05T09:40:53.598Z,52.07
2022-08-05T09:43:49.367Z,50.82
2022-08-05T09:46:32.271Z,50.63
2022-08-05T09:49:24.241Z,50.03
2022-08-05T09:52:19.527Z,49.76
2022-08-05T09:55:55.239Z,48.99
2022-08-05T09:57:54.554Z,49.32
2022-08-05T10:00:26.064Z,49.29
2022-08-05T10:02:58.139Z,49.20
2022-08-05T10:05:29.035Z,48.71
2022-08-05T10:08:34.893Z,47.45
2022-08-05T10:10:54.584Z,46.63
2022-08-05T10:13:49.167Z,46.20
2022-08-05T10:16:33.878Z,46.82
2022-08-05T10:19:13.246Z,47.28
2022-08-05T10:21:41.195Z,47.39
2022-08-05T10:24:12.582Z,46.82
2022-08-05T10:26:49.153Z,47.29
2022-08-05T10:30:07.024Z,45.91
2022-08-05T10:32:55.421Z,45.64
2022-08-05T10:35:04.710Z,45.75
2022-08-05T10:37:40.474Z,46.30
2022-08-05T10:40:28.502Z,46.46
2022-08-05T10:43:31.094Z,45.80
2022-08-05T10:46:08.343Z,45.25
2022-08-05T10:48:56.917Z,45.10
2022-08-05T10:51:48.509Z,45.59
2022-08-05T10:55:01.642Z,45.36
2022-08-05T10:57:29.519Z,45.61
2022-08-05T11:00:20.028Z,45.46
2022-08-05T11:03:25.402Z,45.62
2022-08-05T11:06:15.197Z,46.35
2022-08-05T11:10:03.613Z,46.65
2022-08-05T11:12:45.316Z,47.36
2022-08-05T11:16:00.779Z,46.98
2022-08-05T11:18:46.971Z,46.80
2022-08-05T11:21:51.126Z,46.89
2022-08-05T11:24:29.825Z,46.95
2022-08-05T11:27:45.712Z,46.39
2022-08-05T11:30:18.277Z,46.45
2022-08-05T11:32:47.917Z,45.55
2022-08-05T11:36:08.031Z,45.08
2022-08-05T11:38:45.482Z,44.21
2022-08-05T11:41:56.287Z,43.19
2022-08-05T11:44:40.906Z,42.36
2022-08-05T11:47:11.839Z,42.59
2022-08-05T11:49:50.893Z,42.67
2022-08-05T11:52:29.229Z,42.62
2022-08-05T11:54:59.100Z,42.76
2022-08-05T11:58:08.096Z,42.93
2022-08-05T12:00:31.203Z,43.49
2022-08-05T12:03:15.386Z,43.96
2022-08-05T12:05:43.539Z,44.38
2022-08-05T12:08:11.822Z,44.68
2022-08-05T12:10:49.226Z,44.74
2022-08-05T12:13:47.748Z,44.24
2022-08-05T12:16:18.889Z,44.55
2022-08-05T12:18:49.593Z,43.55
2022-08-05T12:21:23.781Z,43.36
2022-08-05T12:24:10.806Z,43.64
2022-08-05T12:26:49.646Z,43.81
2022-08-05T12:29:23.752Z,43.65
2022-08-05T12:31:54.479Z,43.54
2022-08-05T12:34:31.508Z,42.82
2022-08-05T12:37:10.124Z,41.87
2022-08-05T12:39:40.293Z,41.48
2022-08-05T12:42:15.963Z,41.36
2022-08-05T12:44:45.462Z,41.64
2022-08-05T12:47:17.215Z,41.81
2022-08-05T12:50:03.629Z,41.44
2022-08-05T12:52:42.181Z,41.02
2022-08-05T12:55:26.308Z,40.56
2022-08-05T12:58:52.742Z,40.81
2022-08-05T13:02:01.592Z,40.83
2022-08-05T13:03:39.057Z,40.19
2022-08-05T13:06:16.874Z,40.10
2022-08-05T13:08:51.488Z,39.94
2022-08-05T13:12:01.102Z,39.72
2022-08-05T13:14:20.408Z,38.63
2022-08-05T13:16:56.454Z,38.17
2022-08-05T13:19:40.348Z,37.61
2022-08-05T13:22:15.202Z,37.03
2022-08-05T13:25:05.193Z,37.39
2022-08-05T13:27:42.295Z,38.11
2022-08-05T13:30:35.459Z,38.13
2022-08-05T13:33:02.068Z,38.11
2022-08-05T13:35:42.391Z,38.27
2022-08-05T13:38:20.407Z,38.29
2022-08-05T13:40:59.328Z,38.36
2022-08-05T13:43:45.581Z,38.92
2022-08-05T13:46:16.279Z,39.46
2022-08-05T13:48:58.389Z,39.27
2022-08-05T13:51:40.352Z,38.40
2022-08-05T13:54:12.570Z,37.97
2022-08-05T13:56:45.443Z,38.09
2022-08-05T13:59:30.895Z,37.80
2022-08-05T14:02:00.631Z,37.42
2022-08-05T14:04:52.358Z,37.79
2022-08-05T14:07:26.083Z,37.80
2022-08-05T14:10:28.084Z,37.72
2022-08-05T14:12:57.197Z,38.08
2022-08-05T14:16:08.394Z,38.31
2022-08-05T14:18:17.668Z,38.75
2022-08-05T14:20:47.910Z,39.22
2022-08-05T14:23:24.883Z,39.53
2022-08-05T14:26:00.793Z,39.76
2022-08-05T14:28:29.055Z,39.66
2022-08-05T14:31:00.755Z,39.77
2022-08-05T14:33:56.525Z,39.62
2022-08-05T14:36:21.470Z,39.95
2022-08-05T14:38:50.922Z,39.81
2022-08-05T14:41:18.823Z,39.98
2022-08-05T14:44:02.318Z,39.76
2022-08-05T14:46:35.063Z,39.69
2022-08-05T14:49:07.452Z,39.76
2022-08-05T14:51:38.464Z,39.36
2022-08-05T14:54:26.656Z,39.00
2022-08-05T14:56:58.029Z,38.95
2022-08-05T14:59:29.571Z,38.86
2022-08-05T15:01:58.011Z,38.56
2022-08-05T15:04:27.375Z,38.44
2022-08-05T15:06:57.512Z,38.64
2022-08-05T15:09:51.305Z,38.71
2022-08-05T15:12:16.562Z,38.53
2022-08-05T15:14:49.901Z,38.38
2022-08-05T15:17:46.096Z,38.41
2022-08-05T15:20:18.483Z,38.70
2022-08-05T15:22:54.322Z,38.78
2022-08-05T15:25:51.501Z,38.71
2022-08-05T15:28:15.710Z,38.23
2022-08-05T15:30:45.527Z,38.30
2022-08-05T15:34:18.932Z,38.52
2022-08-05T15:36:06.322Z,38.49
2022-08-05T15:38:46.482Z,38.87
2022-08-05T15:41:21.833Z,38.66
2022-08-05T15:43:54.528Z,38.08
2022-08-05T15:46:24.461Z,38.10
2022-08-05T15:49:00.657Z,37.85
2022-08-05T15:52:13.108Z,37.67
2022-08-05T15:54:34.826Z,37.65
2022-08-05T15:57:07.674Z,37.56
2022-08-05T15:59:36.149Z,37.71
2022-08-05T16:02:09.585Z,38.07
2022-08-05T16:04:43.969Z,38.22
2022-08-05T16:07:11.523Z,38.40
2022-08-05T16:09:41.505Z,38.11
2022-08-05T16:12:09.604Z,38.02
2022-08-05T16:14:39.071Z,37.41
2022-08-05T16:17:06.531Z,36.85
2022-08-05T16:20:04.391Z,36.17
2022-08-05T16:22:24.526Z,35.70
2022-08-05T16:24:55.430Z,35.38
2022-08-05T16:27:32.015Z,35.25
2022-08-05T16:30:25.927Z,34.93
2022-08-05T16:32:54.382Z,34.42
2022-08-05T16:35:28.158Z,34.02
2022-08-05T16:38:03.007Z,34.25
2022-08-05T16:40:51.731Z,34.14
2022-08-05T16:43:25.162Z,34.39
2022-08-05T16:46:03.613Z,34.98
2022-08-05T16:48:38.312Z,35.08
2022-08-05T16:51:09.120Z,35.07
2022-08-05T16:54:04.249Z,35.10
2022-08-05T16:56:30.302Z,35.38
2022-08-05T16:58:58.178Z,35.59
2022-08-05T17:01:26.207Z,35.62
2022-08-05T17:03:53.535Z,35.70
2022-08-05T17:06:20.942Z,36.08
2022-08-05T17:08:54.388Z,36.19
2022-08-05T17:11:25.927Z,36.57
2022-08-05T17:14:00.655Z,37.27
2022-08-05T17:16:36.787Z,37.86
2022-08-05T17:19:07.109Z,38.57
2022-08-05T17:21:36.914Z,39.17
2022-08-05T17:24:28.435Z,39.58
2022-08-05T17:26:58.203Z,40.19
2022-08-05T17:29:34.022Z,40.75
2022-08-05T17:32:11.538Z,41.28
2022-08-05T17:34:49.115Z,41.51
2022-08-05T17:37:39.824Z,41.88
2022-08-05T17:40:14.396Z,42.16
2022-08-05T17:42:50.666Z,42.61
2022-08-05T17:45:22.065Z,42.91
2022-08-05T17:47:54.887Z,43.18
2022-08-05T17:50:28.826Z,43.47
2022-08-05T17:53:00.476Z,44.09
2022-08-05T17:55:37.276Z,44.30
2022-08-05T17:58:12.457Z,44.64
2022-08-05T18:00:47.588Z,45.01
2022-08-05T18:03:59.369Z,45.27
2022-08-05T18:06:12.254Z,45.68
2022-08-05T18:08:46.070Z,46.06
2022-08-05T18:11:24.712Z,46.23
2022-08-05T18:14:13.153Z,46.48
2022-08-05T18:16:51.330Z,47.02
2022-08-05T18:19:22.831Z,46.97
2022-08-05T18:22:09.222Z,47.32
2022-08-05T18:24:40.026Z,47.53
2022-08-05T18:27:16.596Z,47.59
2022-08-05T18:29:51.983Z,47.94
2022-08-05T18:32:27.703Z,48.02
2022-08-05T18:34:57.191Z,48.31
2022-08-05T18:37:34.278Z,48.69
2022-08-05T18:40:57.643Z,48.42
2022-08-05T18:42:58.396Z,49.08
2022-08-05T18:45:26.569Z,49.23
2022-08-05T18:48:11.408Z,49.71
2022-08-05T18:52:05.107Z,50.03
2022-08-05T18:54:03.505Z,50.79
2022-08-05T18:56:30.894Z,50.65
2022-08-05T18:59:01.435Z,51.15
2022-08-05T19:01:33.377Z,51.65
2022-08-05T19:04:24.083Z,52.15
2022-08-05T19:06:53.542Z,52.08
2022-08-05T19:09:21.360Z,52.35
2022-08-05T19:12:00.740Z,52.77
2022-08-05T19:14:37.892Z,52.92
2022-08-05T19:17:18.037Z,53.32
2022-08-05T19:19:48.717Z,53.40
2022-08-05T19:22:17.548Z,52.74
2022-08-05T19:24:54.366Z,54.24
2022-08-05T19:27:30.161Z,53.54
2022-08-05T19:29:58.341Z,53.86
2022-08-05T19:32:26.256Z,55.35
2022-08-05T19:34:56.541Z,55.16
2022-08-05T19:37:35.331Z,56.06
2022-08-05T19:40:15.074Z,55.96
2022-08-05T19:42:42.701Z,57.07
2022-08-05T19:45:33.197Z,57.00
2022-08-05T19:48:05.665Z,56.10
2022-08-05T19:50:34.507Z,56.29
2022-08-05T19:53:10.432Z,56.91
2022-08-05T19:56:13.898Z,57.29
2022-08-05T19:58:29.088Z,56.94
2022-08-05T20:00:58.297Z,57.41
2022-08-05T20:03:26.924Z,58.95
2022-08-05T20:06:15.546Z,59.77
2022-08-05T20:08:47.257Z,59.06
2022-08-05T20:11:18.061Z,58.38
2022-08-05T20:13:54.707Z,58.64
2022-08-05T20:16:26.858Z,59.34
2022-08-05T20:18:55.578Z,59.41
2022-08-05T20:21:24.912Z,59.09
2022-08-05T20:23:53.489Z,59.93
2022-08-05T20:26:24.595Z,60.38
2022-08-05T20:28:57.003Z,61.26
2022-08-05T20:31:28.423Z,61.48
2022-08-05T20:34:11.237Z,61.75
2022-08-05T20:36:43.527Z,62.52
2022-08-05T20:39:13.564Z,62.38
2022-08-05T20:41:46.418Z,61.93
2022-08-05T20:44:29.789Z,62.24
2022-08-05T20:47:01.084Z,62.65
2022-08-05T20:49:28.911Z,61.73
2022-08-05T20:51:57.310Z,62.47
2022-08-05T20:54:59.532Z,62.13
2022-08-05T20:57:42.050Z,62.82
2022-08-05T21:00:19.846Z,62.81
2022-08-05T21:02:57.681Z,62.46
2022-08-05T21:05:25.763Z,62.41
2022-08-05T21:08:06.012Z,62.48
2022-08-05T21:10:33.643Z,63.49
2022-08-05T21:13:10.334Z,62.48
2022-08-05T21:15:44.520Z,63.33
2022-08-05T21:18:18.354Z,63.31
2022-08-05T21:20:45.681Z,63.81
2022-08-05T21:23:14.215Z,64.24
2022-08-05T21:25:44.629Z,64.50
2022-08-05T21:28:11.853Z,64.37
2022-08-05T21:30:39.553Z,64.04
2022-08-05T21:33:11.692Z,64.25
2022-08-05T21:35:58.877Z,65.52
2022-08-05T21:38:27.511Z,66.43
2022-08-05T21:40:54.816Z,66.09
2022-08-05T21:43:24.415Z,66.73
2022-08-05T21:45:57.720Z,65.13
2022-08-05T21:48:28.701Z,64.86
2022-08-05T21:50:56.268Z,65.32
2022-08-05T21:53:27.313Z,65.21
2022-08-05T21:56:09.640Z,65.31
2022-08-05T21:58:57.078Z,65.98
2022-08-05T22:01:26.627Z,65.60
2022-08-05T22:03:55.386Z,65.78
2022-08-05T22:06:35.078Z,65.34
2022-08-05T22:09:14.557Z,65.32
2022-08-05T22:11:46.920Z,65.56
2022-08-05T22:14:35.532Z,65.02
2022-08-05T22:17:06.618Z,65.25
2022-08-05T22:19:57.513Z,66.79
2022-08-05T22:22:28.098Z,66.14
2022-08-05T22:25:18.262Z,67.02
2022-08-05T22:28:09.029Z,68.24
2022-08-05T22:30:56.716Z,69.92
2022-08-05T22:33:57.519Z,70.16
2022-08-05T22:36:15.334Z,68.26
2022-08-05T22:38:48.054Z,68.25
2022-08-05T22:41:26.235Z,69.79
2022-08-05T22:44:08.977Z,69.24
2022-08-05T22:46:39.996Z,69.69
2022-08-05T22:49:23.008Z,69.79
2022-08-05T22:52:05.620Z,69.73
2022-08-05T22:54:36.914Z,69.56
2022-08-05T22:57:06.418Z,69.22
2022-08-05T22:59:43.966Z,69.14
2022-08-05T23:02:18.107Z,69.64
2022-08-05T23:04:52.080Z,69.22
2022-08-05T23:07:21.865Z,68.63
2022-08-05T23:09:57.531Z,68.59
2022-08-05T23:12:32.451Z,68.83
2022-08-05T23:15:08.828Z,68.33
2022-08-05T23:17:37.887Z,68.07
2022-08-05T23:20:24.386Z,68.83
2022-08-05T23:22:56.002Z,70.12
2022-08-05T23:25:53.688Z,69.80
2022-08-05T23:28:12.128Z,70.13
2022-08-05T23:30:43.739Z,69.39
2022-08-05T23:33:22.068Z,69.59
2022-08-05T23:35:56.028Z,69.35
2022-08-05T23:38:25.478Z,69.48
2022-08-05T23:40:53.101Z,68.27
2022-08-05T23:43:25.321Z,68.53
2022-08-05T23:46:20.943Z,68.70
2022-08-05T23:49:00.257Z,69.50
2022-08-05T23:51:55.219Z,70.29
2022-08-05T23:54:30.387Z,71.84
2022-08-05T23:57:03.890Z,72.64
2022-08-05T23:59:37.740Z,71.82
